sensor_id;sensor_type;location;lat;lon;timestamp;P1;P2;P0
77974;PMS5003;67164;51.202;0.278;2023-04-16T00:01:48;18;18;
77974;PMS5003;67164;51.202;0.278;2023-04-16T00:04:15;20;19;
77974;PMS5003;67164;51.202;0.278;2023-04-16T00:06:39;19;19;
77974;PMS5003;67164;51.202;0.278;2023-04-16T00:09:05;20;19;
77974;PMS5003;67164;51.202;0.278;2023-04-16T00:11:30;18;15;
77974;PMS5003;67164;51.202;0.278;2023-04-16T00:13:56;17;17;
77974;PMS5003;67164;51.202;0.278;2023-04-16T00:16:21;15;15;
77974;PMS5003;67164;51.202;0.278;2023-04-16T00:18:47;17;16;
77974;PMS5003;67164;51.202;0.278;2023-04-16T00:21:13;18;16;
77974;PMS5003;67164;51.202;0.278;2023-04-16T00:23:39;16;14;
77974;PMS5003;67164;51.202;0.278;2023-04-16T00:26:05;17;17;
77974;PMS5003;67164;51.202;0.278;2023-04-16T00:28:31;14;14;
77974;PMS5003;67164;51.202;0.278;2023-04-16T00:30:57;16;14;
77974;PMS5003;67164;51.202;0.278;2023-04-16T00:33:22;14;14;
77974;PMS5003;67164;51.202;0.278;2023-04-16T00:35:50;16;15;
77974;PMS5003;67164;51.202;0.278;2023-04-16T00:38:24;14;14;
77974;PMS5003;67164;51.202;0.278;2023-04-16T00:40:45;16;15;
77974;PMS5003;67164;51.202;0.278;2023-04-16T00:43:05;16;14;
77974;PMS5003;67164;51.202;0.278;2023-04-16T00:45:30;14;14;
77974;PMS5003;67164;51.202;0.278;2023-04-16T00:47:57;16;11;
77974;PMS5003;67164;51.202;0.278;2023-04-16T00:50:22;12;12;
77974;PMS5003;67164;51.202;0.278;2023-04-16T00:52:48;12;12;
77974;PMS5003;67164;51.202;0.278;2023-04-16T00:55:14;15;13;
77974;PMS5003;67164;51.202;0.278;2023-04-16T00:57:39;17;15;
77974;PMS5003;67164;51.202;0.278;2023-04-16T01:00:06;10;10;
77974;PMS5003;67164;51.202;0.278;2023-04-16T01:02:31;12;12;
77974;PMS5003;67164;51.202;0.278;2023-04-16T01:04:56;12;12;
77974;PMS5003;67164;51.202;0.278;2023-04-16T01:07:22;15;15;
77974;PMS5003;67164;51.202;0.278;2023-04-16T01:09:47;11;11;
77974;PMS5003;67164;51.202;0.278;2023-04-16T01:12:13;11;11;
77974;PMS5003;67164;51.202;0.278;2023-04-16T01:14:39;12;11;
77974;PMS5003;67164;51.202;0.278;2023-04-16T01:17:05;13;13;
77974;PMS5003;67164;51.202;0.278;2023-04-16T01:19:31;12;12;
77974;PMS5003;67164;51.202;0.278;2023-04-16T01:21:57;12;11;
77974;PMS5003;67164;51.202;0.278;2023-04-16T01:24:23;16;13;
77974;PMS5003;67164;51.202;0.278;2023-04-16T01:26:48;12;9;
77974;PMS5003;67164;51.202;0.278;2023-04-16T01:29:14;12;12;
77974;PMS5003;67164;51.202;0.278;2023-04-16T01:31:40;10;10;
77974;PMS5003;67164;51.202;0.278;2023-04-16T01:34:06;14;11;
77974;PMS5003;67164;51.202;0.278;2023-04-16T01:36:31;9;9;
77974;PMS5003;67164;51.202;0.278;2023-04-16T01:38:59;10;10;
77974;PMS5003;67164;51.202;0.278;2023-04-16T01:41:23;10;10;
77974;PMS5003;67164;51.202;0.278;2023-04-16T01:43:49;10;10;
77974;PMS5003;67164;51.202;0.278;2023-04-16T01:46:19;10;8;
77974;PMS5003;67164;51.202;0.278;2023-04-16T01:48:44;10;10;
77974;PMS5003;67164;51.202;0.278;2023-04-16T01:51:07;12;11;
77974;PMS5003;67164;51.202;0.278;2023-04-16T01:53:32;11;11;
77974;PMS5003;67164;51.202;0.278;2023-04-16T01:55:58;10;10;
77974;PMS5003;67164;51.202;0.278;2023-04-16T01:58:24;11;11;
77974;PMS5003;67164;51.202;0.278;2023-04-16T02:00:50;10;10;
77974;PMS5003;67164;51.202;0.278;2023-04-16T02:03:16;11;11;
77974;PMS5003;67164;51.202;0.278;2023-04-16T02:05:41;10;10;
77974;PMS5003;67164;51.202;0.278;2023-04-16T02:08:07;12;12;
77974;PMS5003;67164;51.202;0.278;2023-04-16T02:10:33;12;12;
77974;PMS5003;67164;51.202;0.278;2023-04-16T02:12:59;12;12;
77974;PMS5003;67164;51.202;0.278;2023-04-16T02:15:25;12;12;
77974;PMS5003;67164;51.202;0.278;2023-04-16T02:17:50;13;11;
77974;PMS5003;67164;51.202;0.278;2023-04-16T02:20:16;12;10;
77974;PMS5003;67164;51.202;0.278;2023-04-16T02:22:42;12;12;
77974;PMS5003;67164;51.202;0.278;2023-04-16T02:25:07;9;9;
77974;PMS5003;67164;51.202;0.278;2023-04-16T02:27:33;11;11;
77974;PMS5003;67164;51.202;0.278;2023-04-16T02:30:01;11;10;
77974;PMS5003;67164;51.202;0.278;2023-04-16T02:32:25;13;12;
77974;PMS5003;67164;51.202;0.278;2023-04-16T02:34:51;14;11;
77974;PMS5003;67164;51.202;0.278;2023-04-16T02:37:17;12;12;
77974;PMS5003;67164;51.202;0.278;2023-04-16T02:39:42;12;11;
77974;PMS5003;67164;51.202;0.278;2023-04-16T02:42:08;12;11;
77974;PMS5003;67164;51.202;0.278;2023-04-16T02:44:34;13;13;
77974;PMS5003;67164;51.202;0.278;2023-04-16T02:47:00;12;11;
77974;PMS5003;67164;51.202;0.278;2023-04-16T02:49:26;8;8;
77974;PMS5003;67164;51.202;0.278;2023-04-16T02:51:52;14;11;
77974;PMS5003;67164;51.202;0.278;2023-04-16T02:54:17;11;11;
77974;PMS5003;67164;51.202;0.278;2023-04-16T02:56:43;13;13;
77974;PMS5003;67164;51.202;0.278;2023-04-16T02:59:09;11;11;
77974;PMS5003;67164;51.202;0.278;2023-04-16T03:01:35;11;10;
77974;PMS5003;67164;51.202;0.278;2023-04-16T03:04:01;9;9;
77974;PMS5003;67164;51.202;0.278;2023-04-16T03:06:26;11;11;
77974;PMS5003;67164;51.202;0.278;2023-04-16T03:08:53;14;12;
77974;PMS5003;67164;51.202;0.278;2023-04-16T03:11:18;15;13;
77974;PMS5003;67164;51.202;0.278;2023-04-16T03:13:49;11;11;
77974;PMS5003;67164;51.202;0.278;2023-04-16T03:16:10;12;12;
77974;PMS5003;67164;51.202;0.278;2023-04-16T03:18:46;12;12;
77974;PMS5003;67164;51.202;0.278;2023-04-16T03:21:02;12;10;
77974;PMS5003;67164;51.202;0.278;2023-04-16T03:23:27;12;11;
77974;PMS5003;67164;51.202;0.278;2023-04-16T03:25:53;12;12;
77974;PMS5003;67164;51.202;0.278;2023-04-16T03:28:19;12;12;
77974;PMS5003;67164;51.202;0.278;2023-04-16T03:30:49;13;12;
77974;PMS5003;67164;51.202;0.278;2023-04-16T03:33:11;11;11;
77974;PMS5003;67164;51.202;0.278;2023-04-16T03:35:41;13;12;
77974;PMS5003;67164;51.202;0.278;2023-04-16T03:38:02;13;13;
77974;PMS5003;67164;51.202;0.278;2023-04-16T03:40:34;13;11;
77974;PMS5003;67164;51.202;0.278;2023-04-16T03:42:54;13;12;
77974;PMS5003;67164;51.202;0.278;2023-04-16T03:45:20;13;13;
77974;PMS5003;67164;51.202;0.278;2023-04-16T03:47:45;11;11;
77974;PMS5003;67164;51.202;0.278;2023-04-16T03:50:11;13;13;
77974;PMS5003;67164;51.202;0.278;2023-04-16T03:52:37;10;10;
77974;PMS5003;67164;51.202;0.278;2023-04-16T03:55:08;12;11;
77974;PMS5003;67164;51.202;0.278;2023-04-16T03:57:34;11;10;
77974;PMS5003;67164;51.202;0.278;2023-04-16T03:59:54;11;11;
77974;PMS5003;67164;51.202;0.278;2023-04-16T04:02:20;11;11;
77974;PMS5003;67164;51.202;0.278;2023-04-16T04:04:46;11;11;
77974;PMS5003;67164;51.202;0.278;2023-04-16T04:07:17;10;10;
77974;PMS5003;67164;51.202;0.278;2023-04-16T04:09:38;13;11;
77974;PMS5003;67164;51.202;0.278;2023-04-16T04:12:04;10;10;
77974;PMS5003;67164;51.202;0.278;2023-04-16T04:14:30;11;11;
77974;PMS5003;67164;51.202;0.278;2023-04-16T04:17:00;10;10;
77974;PMS5003;67164;51.202;0.278;2023-04-16T04:19:21;11;11;
77974;PMS5003;67164;51.202;0.278;2023-04-16T04:21:47;11;11;
77974;PMS5003;67164;51.202;0.278;2023-04-16T04:24:14;13;11;
77974;PMS5003;67164;51.202;0.278;2023-04-16T04:26:39;9;9;
77974;PMS5003;67164;51.202;0.278;2023-04-16T04:29:04;11;10;
77974;PMS5003;67164;51.202;0.278;2023-04-16T04:31:30;10;10;
77974;PMS5003;67164;51.202;0.278;2023-04-16T04:33:56;12;11;
77974;PMS5003;67164;51.202;0.278;2023-04-16T04:36:22;12;11;
77974;PMS5003;67164;51.202;0.278;2023-04-16T04:38:47;14;11;
77974;PMS5003;67164;51.202;0.278;2023-04-16T04:41:13;12;9;
77974;PMS5003;67164;51.202;0.278;2023-04-16T04:43:39;11;10;
77974;PMS5003;67164;51.202;0.278;2023-04-16T04:46:05;10;10;
77974;PMS5003;67164;51.202;0.278;2023-04-16T04:48:31;11;11;
77974;PMS5003;67164;51.202;0.278;2023-04-16T04:50:58;12;11;
77974;PMS5003;67164;51.202;0.278;2023-04-16T04:53:27;13;13;
77974;PMS5003;67164;51.202;0.278;2023-04-16T04:55:48;10;8;
77974;PMS5003;67164;51.202;0.278;2023-04-16T04:58:14;12;12;
77974;PMS5003;67164;51.202;0.278;2023-04-16T05:00:40;12;10;
77974;PMS5003;67164;51.202;0.278;2023-04-16T05:03:08;12;12;
77974;PMS5003;67164;51.202;0.278;2023-04-16T05:05:32;13;12;
77974;PMS5003;67164;51.202;0.278;2023-04-16T05:07:58;11;11;
77974;PMS5003;67164;51.202;0.278;2023-04-16T05:10:23;11;11;
77974;PMS5003;67164;51.202;0.278;2023-04-16T05:12:49;15;12;
77974;PMS5003;67164;51.202;0.278;2023-04-16T05:15:15;12;11;
77974;PMS5003;67164;51.202;0.278;2023-04-16T05:17:41;14;13;
77974;PMS5003;67164;51.202;0.278;2023-04-16T05:20:07;12;12;
77974;PMS5003;67164;51.202;0.278;2023-04-16T05:22:33;9;9;
77974;PMS5003;67164;51.202;0.278;2023-04-16T05:24:58;11;11;
77974;PMS5003;67164;51.202;0.278;2023-04-16T05:27:24;11;11;
77974;PMS5003;67164;51.202;0.278;2023-04-16T05:29:50;11;11;
77974;PMS5003;67164;51.202;0.278;2023-04-16T05:32:16;11;11;
77974;PMS5003;67164;51.202;0.278;2023-04-16T05:34:41;15;13;
77974;PMS5003;67164;51.202;0.278;2023-04-16T05:37:06;12;12;
77974;PMS5003;67164;51.202;0.278;2023-04-16T05:39:32;11;11;
77974;PMS5003;67164;51.202;0.278;2023-04-16T05:41:58;13;11;
77974;PMS5003;67164;51.202;0.278;2023-04-16T05:44:22;12;12;
77974;PMS5003;67164;51.202;0.278;2023-04-16T05:46:48;13;12;
77974;PMS5003;67164;51.202;0.278;2023-04-16T05:49:15;14;14;
77974;PMS5003;67164;51.202;0.278;2023-04-16T05:51:39;12;12;
77974;PMS5003;67164;51.202;0.278;2023-04-16T05:54:04;13;13;
77974;PMS5003;67164;51.202;0.278;2023-04-16T05:56:30;14;14;
77974;PMS5003;67164;51.202;0.278;2023-04-16T05:58:56;15;15;
77974;PMS5003;67164;51.202;0.278;2023-04-16T06:01:21;14;14;
77974;PMS5003;67164;51.202;0.278;2023-04-16T06:03:47;14;14;
77974;PMS5003;67164;51.202;0.278;2023-04-16T06:06:13;13;12;
77974;PMS5003;67164;51.202;0.278;2023-04-16T06:08:38;18;15;
77974;PMS5003;67164;51.202;0.278;2023-04-16T06:11:04;13;13;
77974;PMS5003;67164;51.202;0.278;2023-04-16T06:13:30;18;16;
77974;PMS5003;67164;51.202;0.278;2023-04-16T06:15:57;12;11;
77974;PMS5003;67164;51.202;0.278;2023-04-16T06:18:21;18;13;
77974;PMS5003;67164;51.202;0.278;2023-04-16T06:20:47;10;10;
77974;PMS5003;67164;51.202;0.278;2023-04-16T06:23:13;10;10;
77974;PMS5003;67164;51.202;0.278;2023-04-16T06:25:39;13;12;
77974;PMS5003;67164;51.202;0.278;2023-04-16T06:28:05;12;12;
77974;PMS5003;67164;51.202;0.278;2023-04-16T06:30:30;12;12;
77974;PMS5003;67164;51.202;0.278;2023-04-16T06:32:56;9;9;
77974;PMS5003;67164;51.202;0.278;2023-04-16T06:35:21;10;9;
77974;PMS5003;67164;51.202;0.278;2023-04-16T06:37:47;8;8;
77974;PMS5003;67164;51.202;0.278;2023-04-16T06:40:13;9;9;
77974;PMS5003;67164;51.202;0.278;2023-04-16T06:42:39;9;9;
77974;PMS5003;67164;51.202;0.278;2023-04-16T06:45:05;9;9;
77974;PMS5003;67164;51.202;0.278;2023-04-16T06:47:31;7;7;
77974;PMS5003;67164;51.202;0.278;2023-04-16T06:49:57;8;8;
77974;PMS5003;67164;51.202;0.278;2023-04-16T06:52:22;7;7;
77974;PMS5003;67164;51.202;0.278;2023-04-16T06:54:48;10;10;
77974;PMS5003;67164;51.202;0.278;2023-04-16T06:57:26;9;8;
77974;PMS5003;67164;51.202;0.278;2023-04-16T06:59:43;10;9;
77974;PMS5003;67164;51.202;0.278;2023-04-16T07:02:06;9;9;
77974;PMS5003;67164;51.202;0.278;2023-04-16T07:04:31;9;9;
77974;PMS5003;67164;51.202;0.278;2023-04-16T07:06:58;9;9;
77974;PMS5003;67164;51.202;0.278;2023-04-16T07:09:23;9;9;
77974;PMS5003;67164;51.202;0.278;2023-04-16T07:11:49;6;6;
77974;PMS5003;67164;51.202;0.278;2023-04-16T07:14:15;10;10;
77974;PMS5003;67164;51.202;0.278;2023-04-16T07:16:41;8;8;
77974;PMS5003;67164;51.202;0.278;2023-04-16T07:19:06;12;11;
77974;PMS5003;67164;51.202;0.278;2023-04-16T07:21:32;10;10;
77974;PMS5003;67164;51.202;0.278;2023-04-16T07:23:58;11;11;
77974;PMS5003;67164;51.202;0.278;2023-04-16T07:26:24;13;12;
77974;PMS5003;67164;51.202;0.278;2023-04-16T07:28:50;10;10;
77974;PMS5003;67164;51.202;0.278;2023-04-16T07:31:15;13;13;
77974;PMS5003;67164;51.202;0.278;2023-04-16T07:33:41;12;11;
77974;PMS5003;67164;51.202;0.278;2023-04-16T07:36:07;11;10;
77974;PMS5003;67164;51.202;0.278;2023-04-16T07:38:33;14;10;
77974;PMS5003;67164;51.202;0.278;2023-04-16T07:40:58;12;12;
77974;PMS5003;67164;51.202;0.278;2023-04-16T07:43:25;10;10;
77974;PMS5003;67164;51.202;0.278;2023-04-16T07:45:50;10;10;
77974;PMS5003;67164;51.202;0.278;2023-04-16T07:48:16;10;10;
77974;PMS5003;67164;51.202;0.278;2023-04-16T07:50:42;11;11;
77974;PMS5003;67164;51.202;0.278;2023-04-16T07:53:07;16;13;
77974;PMS5003;67164;51.202;0.278;2023-04-16T07:55:33;16;13;
77974;PMS5003;67164;51.202;0.278;2023-04-16T07:57:59;11;11;
77974;PMS5003;67164;51.202;0.278;2023-04-16T08:00:25;12;12;
77974;PMS5003;67164;51.202;0.278;2023-04-16T08:02:51;13;13;
77974;PMS5003;67164;51.202;0.278;2023-04-16T08:05:17;12;11;
77974;PMS5003;67164;51.202;0.278;2023-04-16T08:07:42;10;10;
77974;PMS5003;67164;51.202;0.278;2023-04-16T08:10:08;12;12;
77974;PMS5003;67164;51.202;0.278;2023-04-16T08:12:34;12;12;
77974;PMS5003;67164;51.202;0.278;2023-04-16T08:14:59;11;8;
77974;PMS5003;67164;51.202;0.278;2023-04-16T08:17:25;14;13;
77974;PMS5003;67164;51.202;0.278;2023-04-16T08:19:51;16;11;
77974;PMS5003;67164;51.202;0.278;2023-04-16T08:22:16;12;10;
77974;PMS5003;67164;51.202;0.278;2023-04-16T08:24:42;11;11;
77974;PMS5003;67164;51.202;0.278;2023-04-16T08:27:08;13;13;
77974;PMS5003;67164;51.202;0.278;2023-04-16T08:29:34;10;10;
77974;PMS5003;67164;51.202;0.278;2023-04-16T08:32:00;9;8;
77974;PMS5003;67164;51.202;0.278;2023-04-16T08:34:25;13;11;
77974;PMS5003;67164;51.202;0.278;2023-04-16T08:36:51;12;11;
77974;PMS5003;67164;51.202;0.278;2023-04-16T08:39:17;11;11;
77974;PMS5003;67164;51.202;0.278;2023-04-16T08:41:44;10;9;
77974;PMS5003;67164;51.202;0.278;2023-04-16T08:44:10;11;11;
77974;PMS5003;67164;51.202;0.278;2023-04-16T08:46:35;14;11;
77974;PMS5003;67164;51.202;0.278;2023-04-16T08:49:00;10;10;
77974;PMS5003;67164;51.202;0.278;2023-04-16T08:51:26;7;7;
77974;PMS5003;67164;51.202;0.278;2023-04-16T08:53:52;10;10;
77974;PMS5003;67164;51.202;0.278;2023-04-16T08:56:18;11;11;
77974;PMS5003;67164;51.202;0.278;2023-04-16T08:58:43;11;10;
77974;PMS5003;67164;51.202;0.278;2023-04-16T09:01:09;13;12;
77974;PMS5003;67164;51.202;0.278;2023-04-16T09:03:35;13;13;
77974;PMS5003;67164;51.202;0.278;2023-04-16T09:06:00;15;14;
77974;PMS5003;67164;51.202;0.278;2023-04-16T09:08:26;19;18;
77974;PMS5003;67164;51.202;0.278;2023-04-16T09:10:52;16;16;
77974;PMS5003;67164;51.202;0.278;2023-04-16T09:13:17;22;21;
77974;PMS5003;67164;51.202;0.278;2023-04-16T09:15:43;19;17;
77974;PMS5003;67164;51.202;0.278;2023-04-16T09:18:09;18;18;
77974;PMS5003;67164;51.202;0.278;2023-04-16T09:20:39;16;16;
77974;PMS5003;67164;51.202;0.278;2023-04-16T09:23:00;15;14;
77974;PMS5003;67164;51.202;0.278;2023-04-16T09:25:26;19;17;
77974;PMS5003;67164;51.202;0.278;2023-04-16T09:27:51;18;18;
77974;PMS5003;67164;51.202;0.278;2023-04-16T09:30:18;17;17;
77974;PMS5003;67164;51.202;0.278;2023-04-16T09:32:42;18;17;
77974;PMS5003;67164;51.202;0.278;2023-04-16T09:35:07;19;17;
77974;PMS5003;67164;51.202;0.278;2023-04-16T09:37:33;17;17;
77974;PMS5003;67164;51.202;0.278;2023-04-16T09:39:59;15;15;
77974;PMS5003;67164;51.202;0.278;2023-04-16T09:42:26;19;18;
77974;PMS5003;67164;51.202;0.278;2023-04-16T09:44:49;18;17;
77974;PMS5003;67164;51.202;0.278;2023-04-16T09:47:15;16;16;
77974;PMS5003;67164;51.202;0.278;2023-04-16T09:49:40;18;18;
77974;PMS5003;67164;51.202;0.278;2023-04-16T09:52:08;20;19;
77974;PMS5003;67164;51.202;0.278;2023-04-16T09:54:31;20;18;
77974;PMS5003;67164;51.202;0.278;2023-04-16T09:56:57;17;14;
77974;PMS5003;67164;51.202;0.278;2023-04-16T09:59:23;18;16;
77974;PMS5003;67164;51.202;0.278;2023-04-16T10:04:14;22;19;
77974;PMS5003;67164;51.202;0.278;2023-04-16T10:06:39;28;28;
77974;PMS5003;67164;51.202;0.278;2023-04-16T10:09:05;24;22;
77974;PMS5003;67164;51.202;0.278;2023-04-16T10:11:35;41;32;
77974;PMS5003;67164;51.202;0.278;2023-04-16T10:13:56;36;28;
77974;PMS5003;67164;51.202;0.278;2023-04-16T10:16:22;52;38;
77974;PMS5003;67164;51.202;0.278;2023-04-16T10:18:47;137;99;
77974;PMS5003;67164;51.202;0.278;2023-04-16T10:21:12;78;58;
77974;PMS5003;67164;51.202;0.278;2023-04-16T10:23:38;77;51;
77974;PMS5003;67164;51.202;0.278;2023-04-16T10:26:03;88;72;
77974;PMS5003;67164;51.202;0.278;2023-04-16T10:28:29;65;46;
77974;PMS5003;67164;51.202;0.278;2023-04-16T10:30:55;50;40;
77974;PMS5003;67164;51.202;0.278;2023-04-16T10:33:21;62;47;
77974;PMS5003;67164;51.202;0.278;2023-04-16T10:35:46;59;50;
77974;PMS5003;67164;51.202;0.278;2023-04-16T10:40:36;200;174;
77974;PMS5003;67164;51.202;0.278;2023-04-16T10:43:02;142;127;
77974;PMS5003;67164;51.202;0.278;2023-04-16T10:45:30;109;99;
77974;PMS5003;67164;51.202;0.278;2023-04-16T10:47:54;380;331;
77974;PMS5003;67164;51.202;0.278;2023-04-16T10:50:18;347;321;
77974;PMS5003;67164;51.202;0.278;2023-04-16T10:52:43;334;294;
77974;PMS5003;67164;51.202;0.278;2023-04-16T10:57:33;115;100;
77974;PMS5003;67164;51.202;0.278;2023-04-16T10:59:59;263;235;
77974;PMS5003;67164;51.202;0.278;2023-04-16T11:02:27;192;174;
77974;PMS5003;67164;51.202;0.278;2023-04-16T11:04:49;136;119;
77974;PMS5003;67164;51.202;0.278;2023-04-16T11:07:16;85;75;
77974;PMS5003;67164;51.202;0.278;2023-04-16T11:09:42;96;88;
77974;PMS5003;67164;51.202;0.278;2023-04-16T11:12:06;96;91;
77974;PMS5003;67164;51.202;0.278;2023-04-16T11:14:33;239;217;
77974;PMS5003;67164;51.202;0.278;2023-04-16T11:16:57;178;168;
77974;PMS5003;67164;51.202;0.278;2023-04-16T11:19:23;126;117;
77974;PMS5003;67164;51.202;0.278;2023-04-16T11:21:48;93;88;
77974;PMS5003;67164;51.202;0.278;2023-04-16T11:24:14;100;91;
77974;PMS5003;67164;51.202;0.278;2023-04-16T11:26:39;83;75;
77974;PMS5003;67164;51.202;0.278;2023-04-16T11:29:10;68;62;
77974;PMS5003;67164;51.202;0.278;2023-04-16T11:31:30;51;46;
77974;PMS5003;67164;51.202;0.278;2023-04-16T11:33:55;46;45;
77974;PMS5003;67164;51.202;0.278;2023-04-16T11:36:20;44;41;
77974;PMS5003;67164;51.202;0.278;2023-04-16T11:38:45;35;34;
77974;PMS5003;67164;51.202;0.278;2023-04-16T11:41:17;44;39;
77974;PMS5003;67164;51.202;0.278;2023-04-16T11:43:36;35;31;
77974;PMS5003;67164;51.202;0.278;2023-04-16T11:46:02;31;27;
77974;PMS5003;67164;51.202;0.278;2023-04-16T11:50:55;21;19;
77974;PMS5003;67164;51.202;0.278;2023-04-16T11:53:18;22;22;
77974;PMS5003;67164;51.202;0.278;2023-04-16T11:55:43;21;20;
77974;PMS5003;67164;51.202;0.278;2023-04-16T11:58:11;20;18;
77974;PMS5003;67164;51.202;0.278;2023-04-16T12:00:35;17;17;
77974;PMS5003;67164;51.202;0.278;2023-04-16T12:03:01;18;16;
77974;PMS5003;67164;51.202;0.278;2023-04-16T12:05:27;18;15;
77974;PMS5003;67164;51.202;0.278;2023-04-16T12:07:52;17;15;
77974;PMS5003;67164;51.202;0.278;2023-04-16T12:10:17;13;12;
77974;PMS5003;67164;51.202;0.278;2023-04-16T12:12:43;19;16;
77974;PMS5003;67164;51.202;0.278;2023-04-16T12:15:10;12;12;
77974;PMS5003;67164;51.202;0.278;2023-04-16T12:17:35;11;10;
77974;PMS5003;67164;51.202;0.278;2023-04-16T12:20:01;9;9;
77974;PMS5003;67164;51.202;0.278;2023-04-16T12:22:27;14;14;
77974;PMS5003;67164;51.202;0.278;2023-04-16T12:24:54;10;10;
77974;PMS5003;67164;51.202;0.278;2023-04-16T12:27:18;13;11;
77974;PMS5003;67164;51.202;0.278;2023-04-16T12:29:43;11;11;
77974;PMS5003;67164;51.202;0.278;2023-04-16T12:34:43;10;10;
77974;PMS5003;67164;51.202;0.278;2023-04-16T12:37:04;12;12;
77974;PMS5003;67164;51.202;0.278;2023-04-16T12:39:27;14;13;
77974;PMS5003;67164;51.202;0.278;2023-04-16T12:41:53;14;10;
77974;PMS5003;67164;51.202;0.278;2023-04-16T12:44:18;12;12;
77974;PMS5003;67164;51.202;0.278;2023-04-16T12:46:44;14;10;
77974;PMS5003;67164;51.202;0.278;2023-04-16T12:49:10;18;14;
77974;PMS5003;67164;51.202;0.278;2023-04-16T12:51:36;18;14;
77974;PMS5003;67164;51.202;0.278;2023-04-16T12:54:02;16;14;
77974;PMS5003;67164;51.202;0.278;2023-04-16T12:56:27;15;12;
77974;PMS5003;67164;51.202;0.278;2023-04-16T12:58:53;16;14;
77974;PMS5003;67164;51.202;0.278;2023-04-16T13:01:18;13;12;
77974;PMS5003;67164;51.202;0.278;2023-04-16T13:03:44;16;13;
77974;PMS5003;67164;51.202;0.278;2023-04-16T13:06:10;12;12;
77974;PMS5003;67164;51.202;0.278;2023-04-16T13:08:36;14;12;
77974;PMS5003;67164;51.202;0.278;2023-04-16T13:11:01;16;12;
77974;PMS5003;67164;51.202;0.278;2023-04-16T13:13:27;12;11;
77974;PMS5003;67164;51.202;0.278;2023-04-16T13:15:53;10;10;
77974;PMS5003;67164;51.202;0.278;2023-04-16T13:18:19;12;11;
77974;PMS5003;67164;51.202;0.278;2023-04-16T13:20:45;13;11;
77974;PMS5003;67164;51.202;0.278;2023-04-16T13:23:10;10;10;
77974;PMS5003;67164;51.202;0.278;2023-04-16T13:25:36;13;13;
77974;PMS5003;67164;51.202;0.278;2023-04-16T13:28:02;13;12;
77974;PMS5003;67164;51.202;0.278;2023-04-16T13:30:28;11;8;
77974;PMS5003;67164;51.202;0.278;2023-04-16T13:32:54;10;9;
77974;PMS5003;67164;51.202;0.278;2023-04-16T13:35:19;9;8;
77974;PMS5003;67164;51.202;0.278;2023-04-16T13:37:45;10;8;
77974;PMS5003;67164;51.202;0.278;2023-04-16T13:40:11;12;11;
77974;PMS5003;67164;51.202;0.278;2023-04-16T13:42:37;12;9;
77974;PMS5003;67164;51.202;0.278;2023-04-16T13:45:02;11;10;
77974;PMS5003;67164;51.202;0.278;2023-04-16T13:47:29;10;8;
77974;PMS5003;67164;51.202;0.278;2023-04-16T13:49:54;9;9;
77974;PMS5003;67164;51.202;0.278;2023-04-16T13:52:20;11;9;
77974;PMS5003;67164;51.202;0.278;2023-04-16T13:54:46;8;8;
77974;PMS5003;67164;51.202;0.278;2023-04-16T13:57:11;10;9;
77974;PMS5003;67164;51.202;0.278;2023-04-16T13:59:37;10;10;
77974;PMS5003;67164;51.202;0.278;2023-04-16T14:02:03;9;9;
77974;PMS5003;67164;51.202;0.278;2023-04-16T14:04:29;7;4;
77974;PMS5003;67164;51.202;0.278;2023-04-16T14:06:55;9;6;
77974;PMS5003;67164;51.202;0.278;2023-04-16T14:09:21;8;8;
77974;PMS5003;67164;51.202;0.278;2023-04-16T14:11:47;6;6;
77974;PMS5003;67164;51.202;0.278;2023-04-16T14:14:12;10;9;
77974;PMS5003;67164;51.202;0.278;2023-04-16T14:16:38;7;7;
77974;PMS5003;67164;51.202;0.278;2023-04-16T14:19:04;8;7;
77974;PMS5003;67164;51.202;0.278;2023-04-16T14:21:30;4;4;
77974;PMS5003;67164;51.202;0.278;2023-04-16T14:23:55;6;6;
77974;PMS5003;67164;51.202;0.278;2023-04-16T14:26:22;9;9;
77974;PMS5003;67164;51.202;0.278;2023-04-16T14:28:52;6;6;
77974;PMS5003;67164;51.202;0.278;2023-04-16T14:36:05;9;7;
77974;PMS5003;67164;51.202;0.278;2023-04-16T14:38:30;6;6;
77974;PMS5003;67164;51.202;0.278;2023-04-16T14:40:56;6;6;
77974;PMS5003;67164;51.202;0.278;2023-04-16T14:43:22;7;5;
77974;PMS5003;67164;51.202;0.278;2023-04-16T14:45:48;6;5;
77974;PMS5003;67164;51.202;0.278;2023-04-16T14:48:14;7;7;
77974;PMS5003;67164;51.202;0.278;2023-04-16T14:50:39;7;5;
77974;PMS5003;67164;51.202;0.278;2023-04-16T14:53:06;8;6;
77974;PMS5003;67164;51.202;0.278;2023-04-16T14:55:31;7;5;
77974;PMS5003;67164;51.202;0.278;2023-04-16T14:57:57;4;4;
77974;PMS5003;67164;51.202;0.278;2023-04-16T15:00:23;6;6;
77974;PMS5003;67164;51.202;0.278;2023-04-16T15:02:48;6;6;
77974;PMS5003;67164;51.202;0.278;2023-04-16T15:05:14;9;6;
77974;PMS5003;67164;51.202;0.278;2023-04-16T15:07:40;6;6;
77974;PMS5003;67164;51.202;0.278;2023-04-16T15:10:07;6;6;
77974;PMS5003;67164;51.202;0.278;2023-04-16T15:12:32;9;9;
77974;PMS5003;67164;51.202;0.278;2023-04-16T15:14:58;7;7;
77974;PMS5003;67164;51.202;0.278;2023-04-16T15:17:23;8;6;
77974;PMS5003;67164;51.202;0.278;2023-04-16T15:19:49;9;9;
77974;PMS5003;67164;51.202;0.278;2023-04-16T15:22:15;13;11;
77974;PMS5003;67164;51.202;0.278;2023-04-16T15:24:41;9;9;
77974;PMS5003;67164;51.202;0.278;2023-04-16T15:27:07;10;10;
77974;PMS5003;67164;51.202;0.278;2023-04-16T15:29:33;10;10;
77974;PMS5003;67164;51.202;0.278;2023-04-16T15:31:59;14;10;
77974;PMS5003;67164;51.202;0.278;2023-04-16T15:34:25;9;9;
77974;PMS5003;67164;51.202;0.278;2023-04-16T15:36:50;11;11;
77974;PMS5003;67164;51.202;0.278;2023-04-16T15:39:16;10;10;
77974;PMS5003;67164;51.202;0.278;2023-04-16T15:41:42;11;11;
77974;PMS5003;67164;51.202;0.278;2023-04-16T15:44:08;10;10;
77974;PMS5003;67164;51.202;0.278;2023-04-16T15:46:33;11;11;
77974;PMS5003;67164;51.202;0.278;2023-04-16T15:48:59;13;10;
77974;PMS5003;67164;51.202;0.278;2023-04-16T15:51:25;11;11;
77974;PMS5003;67164;51.202;0.278;2023-04-16T15:53:51;7;7;
77974;PMS5003;67164;51.202;0.278;2023-04-16T15:56:17;13;10;
77974;PMS5003;67164;51.202;0.278;2023-04-16T15:58:42;13;11;
77974;PMS5003;67164;51.202;0.278;2023-04-16T16:01:07;11;11;
77974;PMS5003;67164;51.202;0.278;2023-04-16T16:03:33;14;12;
77974;PMS5003;67164;51.202;0.278;2023-04-16T16:05:59;12;11;
77974;PMS5003;67164;51.202;0.278;2023-04-16T16:08:25;12;10;
77974;PMS5003;67164;51.202;0.278;2023-04-16T16:10:51;16;11;
77974;PMS5003;67164;51.202;0.278;2023-04-16T16:13:17;12;12;
77974;PMS5003;67164;51.202;0.278;2023-04-16T16:15:42;12;11;
77974;PMS5003;67164;51.202;0.278;2023-04-16T16:18:08;12;11;
77974;PMS5003;67164;51.202;0.278;2023-04-16T16:20:34;14;12;
77974;PMS5003;67164;51.202;0.278;2023-04-16T16:23:00;13;11;
77974;PMS5003;67164;51.202;0.278;2023-04-16T16:25:25;16;16;
77974;PMS5003;67164;51.202;0.278;2023-04-16T16:27:51;20;18;